CR University 6 Hr

Saturday, July 14, 2018 11:00 AM (GMT-4) - Final results

Race info
Sport: Cycling - mtn cross-country
Location: Canal Winchester, OH, United States
Start type: Mass start
Teams: 40
Legs: 6
Race type: Flexible relay
Timed on: iPad
Timed with: Webscorer PRO 3.0
Updated: Saturday, July 14, 2018 8:25 PM (GMT-4)
Organized by: COMBO
Race website: www.combomtb.com

Contact organizer

Use this form to send an email to the organizer.

Your name
Your email address
Confirm email address
Message to organizer
Send

Place Bib Racer name Affiliation Category Leg 1
1 56 Peyton Randolph   Mens Solo 47:55.9 -+0.00%100.00%
2 47 Ryan Gamm   Mens Solo 48:01.9 +0:06.0+0.21%99.79%
3 27 Cato Coleman Systematic Chaos  Mens Duo 48:53.9 +0:58.0+2.02%98.02%
4 49 Aaron Graber   Mens Solo 49:33.4 +1:37.5+3.39%96.72%
5 48 Michael Gottfried   Mens Solo 49:56.5 +2:00.6+4.19%95.98%
6 55 Prokop Prusek   Mens Solo 50:30.4 +2:34.5+5.37%94.90%
7 25 Joe Worboy Worboys  Mens Duo 50:33.8 +2:37.9+5.49%94.80%
8 42 Jason Baldwin   Mens Solo 51:52.4 +3:56.5+8.22%92.40%
9 32 Ben Grier Operation Funky Duck  Mens Duo 53:23.3 +5:27.4+11.38%89.78%
10 40 Zack Zackowski Better Late than Never  Mens Duo 54:14.3 +6:18.4+13.16%88.37%
11 6 Bruce Pisarek Team Swanky  Coed Trio 54:43.5 +6:47.6+14.17%87.59%
12 34 Chris Knapp Knapp Attack  Mens Duo 55:22.5 +7:26.6+15.53%86.56%
13 3 Travis Stevens Nougie Power  Coed Duo 56:05.6 +8:09.7+17.03%85.45%
14 33 Joe Hall :roll Dad Bod  Mens Duo 57:09.4 +9:13.5+19.25%83.86%
15 38 Rick Voithofer Team Fang  Mens Duo 57:16.2 +9:20.3+19.48%83.69%
16 14 Ryan Houston Wheelie Fun/Gators  Men Trio 57:17.5 +9:21.6+19.53%83.66%
17 395 Heidi Coulter Long Haul Truckers  Womens Duo 57:24.6 +9:28.7+19.77%83.49%
18 53 Scott Phillips   Mens Solo 57:39.4 +9:43.5+20.29%83.13%
19 393 Tess Cunningham   Womens Solo 1:01:03.9 +13:08.0+27.40%78.49%
20 60 Kari Hutson Everything Hurts and I’m Dying  Womens Duo 1:03:43.4 +15:47.5+32.95%75.22%
21 8 Marcus Bertin Bonk Bros  Men Trio 1:05:15.2 +17:19.3+36.14%73.45%
22 59 Nathan Voss   Mens Solo 1:05:27.9 +17:32.0+36.58%73.22%
23 41 Paul Adams   Mens Solo 1:05:29.6 +17:33.7+36.64%73.19%
24 4 Robin Tullercash Henry & Robin  Coed Duo 1:05:44.9 +17:49.0+37.17%72.90%
25 52 Tom Morris   Mens Solo 1:05:58.4 +18:02.5+37.64%72.65%
26 21 David Spurlock   Mens 50+ Solo 1:06:36.6 +18:40.7+38.97%71.96%
27 46 Evandro Ficanha   Mens Solo 1:07:10.0 +19:14.1+40.13%71.36%
28 58 Daniel Shapiro   Mens Solo 1:09:19.2 +21:23.3+44.62%69.15%
29 20 Mark MacNaughton   Mens 50+ Solo 1:10:13.6 +22:17.7+46.51%68.25%
30 37 Kyle Robenstine Gator Teeth  Mens Duo 1:10:18.0 +22:22.1+46.67%68.18%
31 392 Brittany Beuthe   Womens Solo 1:10:31.0 +22:35.1+47.12%67.97%
32 17 Gary Dunham   Mens 50+ Solo 1:13:02.2 +25:06.3+52.38%65.63%
33 54 Logan Pitcher   Mens Solo 1:13:58.2 +26:02.3+54.32%64.80%
34 394 Saeedeh Ziaee   Womens Solo 1:15:16.5 +27:20.6+57.05%63.68%
35 397 Rachel Rubin Off in the Woods  Womens Trio 1:15:22.2 +27:26.3+57.24%63.60%
36 19 Alan Lemire   Mens 50+ Solo 1:26:25.5 +38:29.6+80.31%55.46%
37 45 Justin Reeves Downhill Demolishers  Mens Duo 1:27:31.3 +39:35.4+82.60%54.77%
38 18 Dan Fuchs   Mens 50+ Solo 1:27:37.3 +39:41.4+82.81%54.70%
39 50 Bernard Gurr   Mens Solo 1:31:52.9 +43:57.0+91.69%52.17%
40 13 Larry Markusic Team Edventure  Men Trio 2:08:26.0 +1:20:30.1+167.95%37.32%